Time;durP1;ratioP1;P1;durP2;ratioP2;P2;SDS_P1;SDS_P2;PMS_P1;PMS_P2;Temp;Humidity;BMP_temperature;BMP_pressure;BME280_temperature;BME280_humidity;BME280_pressure;Samples;Min_cycle;Max_cycle;Signal;HPM_P1;HPM_P2
2023/04/23 00:00:40;;;;;;;10.53;8.10;;;;;;;15.05;85.87;99509.63;5074769;28;20211;-66
2023/04/23 00:03:09;;;;;;;8.73;8.03;;;;;;;14.99;85.91;99491.78;5073914;28;20196;-66
2023/04/23 00:05:36;;;;;;;11.47;9.07;;;;;;;15.08;85.88;99511.03;5074537;28;20200;-66
2023/04/23 00:08:06;;;;;;;12.43;8.50;;;;;;;15.14;85.65;99512.78;5074336;28;20652;-67
2023/04/23 00:10:33;;;;;;;9.20;8.50;;;;;;;15.17;85.24;99518.53;5074550;28;20187;-66
2023/04/23 00:13:00;;;;;;;9.60;8.80;;;;;;;15.18;84.80;99514.81;5074041;28;20196;-65
2023/04/23 00:15:28;;;;;;;9.70;8.70;;;;;;;15.21;84.73;99518.88;5074378;28;20230;-66
2023/04/23 00:17:54;;;;;;;10.17;9.37;;;;;;;15.15;83.97;99515.25;5073997;28;20192;-65
2023/04/23 00:20:21;;;;;;;10.87;10.00;;;;;;;15.08;84.65;99519.06;5074021;28;20195;-66
2023/04/23 00:22:48;;;;;;;10.53;9.43;;;;;;;15.03;85.45;99516.25;5074118;28;20196;-66
2023/04/23 00:25:16;;;;;;;10.23;9.20;;;;;;;14.98;85.70;99519.56;5073876;28;20262;-66
2023/04/23 00:27:43;;;;;;;10.37;9.47;;;;;;;14.99;85.75;99523.88;5074050;28;20364;-66
2023/04/23 00:30:10;;;;;;;9.73;9.03;;;;;;;14.93;85.05;99516.75;5074163;28;20241;-67
2023/04/23 00:32:37;;;;;;;11.73;10.53;;;;;;;14.98;85.62;99519.56;5073731;28;20254;-67
2023/04/23 00:35:04;;;;;;;10.07;8.73;;;;;;;15.01;85.80;99521.81;5073911;28;20219;-66
2023/04/23 00:37:31;;;;;;;10.67;9.57;;;;;;;15.02;85.98;99520.75;5073965;28;20283;-66
2023/04/23 00:39:58;;;;;;;10.03;9.20;;;;;;;15.02;85.92;99520.75;5074117;28;20245;-66
2023/04/23 00:42:27;;;;;;;10.10;9.03;;;;;;;15.05;86.04;99531.03;5073824;28;20196;-66
2023/04/23 00:44:54;;;;;;;9.80;9.13;;;;;;;15.05;86.16;99531.03;5073615;28;20204;-66
2023/04/23 00:47:22;;;;;;;9.73;8.67;;;;;;;15.07;85.88;99530.81;5073400;28;20199;-66
2023/04/23 00:49:52;;;;;;;9.80;8.97;;;;;;;15.03;85.40;99533.09;5073449;28;20237;-66
2023/04/23 00:52:18;;;;;;;9.37;8.53;;;;;;;15.00;86.05;99533.53;5073667;28;20192;-67
2023/04/23 00:54:45;;;;;;;8.80;8.20;;;;;;;14.82;85.88;99527.34;5073116;28;20224;-67
2023/04/23 00:57:12;;;;;;;7.83;7.37;;;;;;;14.78;86.49;99528.84;5073345;28;20196;-67
2023/04/23 00:59:40;;;;;;;7.87;6.90;;;;;;;14.71;85.90;99534.25;5073427;28;20249;-67
2023/04/23 01:02:07;;;;;;;7.13;6.63;;;;;;;14.54;84.03;99549.25;5073178;28;20633;-67
2023/04/23 01:04:36;;;;;;;8.53;6.60;;;;;;;14.50;83.89;99544.56;5073312;28;20683;-67
2023/04/23 01:07:03;;;;;;;10.60;6.77;;;;;;;14.36;83.58;99525.16;5073477;28;20227;-67
2023/04/23 01:09:31;;;;;;;8.07;6.53;;;;;;;14.20;82.47;99514.16;5070761;28;20671;-67
2023/04/23 01:11:58;;;;;;;7.47;6.57;;;;;;;14.28;81.46;99549.47;5073411;28;20196;-67
2023/04/23 01:14:26;;;;;;;7.13;6.53;;;;;;;14.26;81.10;99546.19;5073148;28;20204;-66
2023/04/23 01:16:55;;;;;;;6.50;6.00;;;;;;;14.16;80.33;99545.03;5072982;28;20200;-66
2023/04/23 01:19:21;;;;;;;9.17;6.27;;;;;;;14.16;81.12;99548.53;5073247;28;20562;-66
2023/04/23 01:21:50;;;;;;;6.57;6.07;;;;;;;14.24;80.76;99548.28;5072801;28;20192;-66
2023/04/23 01:24:18;;;;;;;6.57;6.00;;;;;;;14.00;80.29;99541.03;5072923;28;20196;-66
2023/04/23 01:26:45;;;;;;;6.93;6.17;;;;;;;14.02;80.78;99544.31;5073020;28;20200;-66
2023/04/23 01:29:11;;;;;;;11.83;6.63;;;;;;;13.80;81.40;99540.34;5072955;28;20228;-66
2023/04/23 01:31:38;;;;;;;7.77;6.37;;;;;;;13.76;81.66;99536.47;5072640;28;20600;-66
2023/04/23 01:34:06;;;;;;;6.73;6.20;;;;;;;13.80;81.51;99534.22;5072472;28;20585;-66
2023/04/23 01:36:33;;;;;;;8.33;5.93;;;;;;;13.74;81.89;99535.88;5072859;28;20223;-67
2023/04/23 01:39:00;;;;;;;7.63;6.57;;;;;;;13.78;81.63;99539.75;5072459;28;20655;-67
2023/04/23 01:41:28;;;;;;;7.40;5.93;;;;;;;13.31;82.16;99540.22;5072474;28;20192;-67
2023/04/23 01:43:56;;;;;;;7.97;6.13;;;;;;;13.26;82.50;99534.69;5072672;28;20192;-66
2023/04/23 01:46:23;;;;;;;7.53;6.03;;;;;;;13.32;82.64;99541.84;5071927;28;20196;-66
2023/04/23 01:48:50;;;;;;;6.70;6.23;;;;;;;13.38;83.31;99540.19;5068928;28;20200;-66
2023/04/23 01:51:17;;;;;;;6.97;6.30;;;;;;;13.44;82.36;99545.47;5072265;28;20570;-66
2023/04/23 01:53:44;;;;;;;8.33;6.30;;;;;;;13.47;82.36;99547.72;5072537;28;20288;-66
2023/04/23 01:56:11;;;;;;;10.23;6.40;;;;;;;13.44;82.63;99542.81;5072464;28;20219;-66
2023/04/23 01:58:39;;;;;;;8.23;7.10;;;;;;;13.49;82.38;99536.84;5072455;28;20192;-66
2023/04/23 02:01:06;;;;;;;8.27;6.13;;;;;;;13.49;81.74;99548.34;5072188;28;20195;-66
2023/04/23 02:03:33;;;;;;;6.40;5.77;;;;;;;13.55;81.76;99550.16;5071953;28;20200;-66
2023/04/23 02:06:00;;;;;;;8.93;6.97;;;;;;;13.58;82.06;99551.56;5072536;28;20191;-67
2023/04/23 02:08:28;;;;;;;11.27;6.63;;;;;;;13.60;81.56;99546.84;5071134;28;20627;-66
2023/04/23 02:10:54;;;;;;;6.63;6.13;;;;;;;13.62;81.25;99547.44;5071990;28;20203;-66
2023/04/23 02:13:21;;;;;;;10.70;6.37;;;;;;;13.56;81.32;99549.13;5071886;28;20191;-66
2023/04/23 02:15:49;;;;;;;7.10;5.47;;;;;;;13.30;81.51;99546.59;5072203;28;20215;-66
2023/04/23 02:18:16;;;;;;;8.23;5.63;;;;;;;13.27;81.86;99549.66;5072253;28;20269;-67
2023/04/23 02:20:43;;;;;;;6.97;6.20;;;;;;;13.32;82.28;99552.50;5071565;28;20667;-66
2023/04/23 02:23:10;;;;;;;11.87;5.73;;;;;;;13.27;81.47;99552.34;5072166;28;20275;-67
2023/04/23 02:25:38;;;;;;;8.30;5.77;;;;;;;13.06;82.23;99547.28;5070958;28;20245;-67
2023/04/23 02:28:06;;;;;;;7.50;6.77;;;;;;;13.17;82.86;99551.97;5071570;28;20238;-67
2023/04/23 02:30:35;;;;;;;8.37;6.30;;;;;;;13.13;82.44;99542.75;5070946;28;20467;-67
2023/04/23 02:33:05;;;;;;;12.57;7.07;;;;;;;13.26;81.97;99556.03;5072087;28;20249;-67
2023/04/23 02:35:32;;;;;;;8.17;6.17;;;;;;;13.35;82.04;99546.75;5071586;28;20703;-67
2023/04/23 02:37:58;;;;;;;6.50;5.90;;;;;;;13.35;81.11;99556.63;5072092;28;20273;-66
2023/04/23 02:40:25;;;;;;;8.17;6.40;;;;;;;13.36;81.56;99553.72;5071928;28;20230;-66
2023/04/23 02:42:52;;;;;;;7.17;6.07;;;;;;;13.42;81.23;99558.22;5071741;28;20242;-66
2023/04/23 02:45:18;;;;;;;6.27;5.73;;;;;;;13.47;80.81;99550.41;5071560;28;20265;-66
2023/04/23 02:47:45;;;;;;;6.43;5.93;;;;;;;13.13;81.69;99558.75;5071686;28;20676;-67
2023/04/23 02:50:13;;;;;;;7.23;5.67;;;;;;;13.13;82.09;99558.75;5071883;28;20265;-66
2023/04/23 02:52:40;;;;;;;7.93;5.90;;;;;;;13.16;82.12;99563.69;5071101;28;20203;-67
2023/04/23 02:55:08;;;;;;;11.73;6.17;;;;;;;13.24;81.58;99549.28;5071423;28;20694;-67
2023/04/23 02:57:35;;;;;;;12.97;6.10;;;;;;;13.04;81.96;99560.03;5071834;28;20265;-67
2023/04/23 03:00:04;;;;;;;6.63;5.70;;;;;;;13.14;82.24;99555.06;5071244;28;20192;-67
2023/04/23 03:02:31;;;;;;;7.60;6.63;;;;;;;13.15;81.96;99551.34;5071379;28;20663;-67
2023/04/23 03:04:58;;;;;;;6.97;5.83;;;;;;;13.14;81.40;99560.41;5071599;28;20196;-67
2023/04/23 03:07:26;;;;;;;6.17;5.77;;;;;;;12.86;81.85;99561.69;5071832;28;20253;-66
2023/04/23 03:09:53;;;;;;;8.20;6.40;;;;;;;12.72;82.89;99560.91;5070709;28;20611;-66
2023/04/23 03:12:19;;;;;;;10.27;7.20;;;;;;;12.83;82.77;99564.78;5071636;28;20257;-66
2023/04/23 03:14:46;;;;;;;6.57;5.17;;;;;;;12.94;82.47;99574.81;5070601;28;20188;-67
2023/04/23 03:17:13;;;;;;;8.97;5.80;;;;;;;12.99;81.86;99567.81;5071313;28;20219;-67
2023/04/23 03:19:39;;;;;;;12.87;6.20;;;;;;;13.07;82.09;99570.25;5071530;28;20242;-67
2023/04/23 03:22:06;;;;;;;7.13;5.47;;;;;;;13.12;81.93;99578.47;5071329;28;20192;-67
2023/04/23 03:24:34;;;;;;;5.97;5.40;;;;;;;13.05;81.21;99572.31;5069965;28;20250;-67
2023/04/23 03:27:01;;;;;;;9.40;5.50;;;;;;;13.13;81.26;99584.59;5071304;28;20649;-67
2023/04/23 03:29:28;;;;;;;8.23;5.40;;;;;;;13.13;80.61;99588.09;5071588;28;20231;-67
2023/04/23 03:31:55;;;;;;;6.90;5.67;;;;;;;13.13;79.88;99589.94;5071860;28;20228;-66
2023/04/23 03:34:22;;;;;;;9.93;4.83;;;;;;;13.08;80.25;99592.41;5075180;28;20199;-67
2023/04/23 03:36:49;;;;;;;10.87;5.73;;;;;;;13.16;80.27;99600.19;5074911;28;20281;-66
2023/04/23 03:39:16;;;;;;;9.10;5.43;;;;;;;13.16;79.62;99590.34;5073826;28;20274;-66
2023/04/23 03:41:44;;;;;;;8.30;5.27;;;;;;;13.24;80.31;99597.31;5074244;28;20192;-67
2023/04/23 03:44:11;;;;;;;8.57;5.47;;;;;;;13.27;79.89;99587.00;5074643;28;20222;-66
2023/04/23 03:46:38;;;;;;;9.83;6.07;;;;;;;13.32;79.77;99594.41;5074500;28;20249;-67
2023/04/23 03:49:05;;;;;;;12.90;5.67;;;;;;;13.33;79.49;99596.84;5073782;28;20250;-66
2023/04/23 03:51:31;;;;;;;8.37;6.03;;;;;;;13.48;79.53;99594.72;5073635;28;20200;-66
2023/04/23 03:53:58;;;;;;;6.23;5.13;;;;;;;13.64;79.05;99602.25;5074900;28;20253;-66
2023/04/23 03:56:25;;;;;;;7.10;5.33;;;;;;;13.80;78.04;99599.09;5074379;28;20219;-67
2023/04/23 03:58:53;;;;;;;12.03;5.30;;;;;;;13.86;76.49;99608.94;5074815;28;20196;-67
2023/04/23 04:01:20;;;;;;;9.80;4.90;;;;;;;13.92;75.70;99607.22;5074275;28;20556;-66
2023/04/23 04:03:46;;;;;;;10.17;5.17;;;;;;;13.96;75.65;99614.59;5072726;28;20249;-67
2023/04/23 04:06:13;;;;;;;6.93;4.73;;;;;;;13.99;75.08;99616.84;5074249;28;20200;-66
2023/04/23 04:08:40;;;;;;;5.73;4.97;;;;;;;14.02;75.23;99615.59;5074637;28;20249;-65
2023/04/23 04:11:08;;;;;;;10.97;5.53;;;;;;;14.13;75.22;99618.41;5073249;28;20203;-66
2023/04/23 04:13:34;;;;;;;9.63;5.73;;;;;;;14.17;74.91;99624.94;5073689;28;20287;-66
2023/04/23 04:16:02;;;;;;;6.50;5.90;;;;;;;14.45;74.98;99624.56;5073982;28;20273;-65
2023/04/23 04:18:29;;;;;;;9.33;5.37;;;;;;;14.94;74.16;99633.41;5074130;28;20668;-65
2023/04/23 04:20:56;;;;;;;8.83;5.40;;;;;;;15.50;71.64;99634.06;5074332;28;20282;-65
2023/04/23 04:23:23;;;;;;;6.13;5.63;;;;;;;16.06;70.12;99640.97;5074353;28;20195;-66
2023/04/23 04:25:53;;;;;;;9.30;5.23;;;;;;;16.67;68.80;99650.38;5073832;28;20199;-66
2023/04/23 04:28:20;;;;;;;8.07;5.63;;;;;;;17.11;66.90;99646.31;5073281;28;20334;-66
2023/04/23 04:30:48;;;;;;;10.40;5.73;;;;;;;17.70;63.85;99656.75;5073718;28;20606;-66
2023/04/23 04:33:16;;;;;;;7.33;5.07;;;;;;;18.17;60.75;99671.69;5073740;28;20711;-65
2023/04/23 04:35:44;;;;;;;5.47;4.70;;;;;;;18.62;58.28;99665.25;5073647;28;20192;-65
2023/04/23 04:38:11;;;;;;;6.77;5.27;;;;;;;18.97;56.83;99667.72;5074062;28;20221;-65
2023/04/23 04:40:38;;;;;;;6.03;4.40;;;;;;;19.25;56.04;99667.63;5073850;28;20253;-66
2023/04/23 04:43:05;;;;;;;6.03;4.17;;;;;;;19.56;53.31;99686.66;5073470;28;20663;-65
2023/04/23 04:45:32;;;;;;;9.33;4.30;;;;;;;19.78;52.41;99668.63;5073791;28;20193;-65
2023/04/23 04:47:58;;;;;;;9.13;4.30;;;;;;;19.96;51.61;99672.88;5073704;28;20219;-65
2023/04/23 04:50:26;;;;;;;5.10;4.60;;;;;;;19.91;51.67;99678.22;5073257;28;20192;-65
2023/04/23 04:52:53;;;;;;;9.97;3.23;;;;;;;20.06;51.73;99673.00;5072138;28;20247;-65
2023/04/23 04:55:20;;;;;;;6.87;4.43;;;;;;;20.36;50.11;99676.06;5073141;28;20197;-65
2023/04/23 04:57:46;;;;;;;4.40;3.43;;;;;;;20.92;55.97;99670.13;5073538;28;20226;-64
2023/04/23 05:00:26;;;;;;;3.97;3.67;;;;;;;21.14;51.71;99684.31;5072822;28;20184;-69
2023/04/23 05:02:53;;;;;;;4.53;3.23;;;;;;;20.63;56.66;99666.84;5073456;28;20213;-68
2023/04/23 05:05:24;;;;;;;6.77;4.30;;;;;;;20.02;51.39;99666.50;5073332;28;20257;-68
2023/04/23 05:07:53;;;;;;;5.90;4.43;;;;;;;19.42;52.23;99681.88;5073299;28;20253;-68
2023/04/23 05:10:20;;;;;;;6.87;4.80;;;;;;;18.77;54.45;99675.47;5073130;28;20194;-68
2023/04/23 05:12:47;;;;;;;8.13;4.90;;;;;;;18.31;56.11;99673.00;5072858;28;20293;-67
2023/04/23 05:15:14;;;;;;;8.23;4.37;;;;;;;18.00;57.77;99676.16;5071792;28;20725;-67
2023/04/23 05:17:41;;;;;;;8.57;4.73;;;;;;;17.72;57.59;99681.53;5072683;28;20224;-69
2023/04/23 05:20:10;;;;;;;9.83;5.23;;;;;;;17.44;58.63;99681.47;5072693;28;20265;-66
2023/04/23 05:22:37;;;;;;;8.20;4.43;;;;;;;17.26;59.30;99681.53;5072298;28;20199;-69
2023/04/23 05:25:06;;;;;;;12.33;4.50;;;;;;;17.02;61.31;99679.94;5073053;28;20281;-68
2023/04/23 05:27:33;;;;;;;6.50;4.27;;;;;;;16.82;62.88;99668.72;5072708;28;20235;-67
2023/04/23 05:30:00;;;;;;;12.97;5.30;;;;;;;16.84;62.30;99666.59;5072972;28;20245;-67
2023/04/23 05:32:27;;;;;;;12.20;6.30;;;;;;;17.10;61.72;99672.34;5072615;28;20263;-67
2023/04/23 05:34:54;;;;;;;5.23;4.63;;;;;;;17.37;59.59;99678.88;5073051;28;20192;-79
2023/04/23 05:37:21;;;;;;;4.97;4.37;;;;;;;17.69;59.76;99680.13;5072434;28;20285;-78
2023/04/23 05:39:48;;;;;;;4.23;3.90;;;;;;;18.22;60.03;99680.63;5072411;28;20198;-77
2023/04/23 05:42:16;;;;;;;6.37;5.17;;;;;;;18.25;57.29;99693.59;5072244;28;20659;-79
2023/04/23 05:44:42;;;;;;;6.53;3.60;;;;;;;19.24;60.59;99688.34;5072383;28;20675;-79
2023/04/23 05:47:10;;;;;;;10.17;4.20;;;;;;;19.57;56.30;99685.59;5072454;28;20250;-80
2023/04/23 05:49:37;;;;;;;5.93;4.20;;;;;;;19.37;52.25;99696.13;5072081;28;20246;-79
2023/04/23 05:52:04;;;;;;;4.43;3.80;;;;;;;19.06;54.27;99685.06;5069021;28;20254;-81
2023/04/23 05:54:31;;;;;;;5.43;4.77;;;;;;;19.09;53.98;99692.66;5071361;28;20729;-76
2023/04/23 05:56:57;;;;;;;10.43;6.60;;;;;;;19.17;52.60;99698.47;5071581;28;20782;-77
2023/04/23 05:59:26;;;;;;;5.80;3.87;;;;;;;19.07;52.20;99698.31;5071986;28;20223;-77
2023/04/23 06:01:52;;;;;;;5.90;4.00;;;;;;;18.94;53.29;99703.19;5070782;28;20256;-74
2023/04/23 06:04:20;;;;;;;6.37;4.37;;;;;;;18.71;52.81;99700.66;5073311;28;20725;-80
2023/04/23 06:06:47;;;;;;;9.37;4.57;;;;;;;18.70;53.67;99696.34;5076523;28;20199;-79
2023/04/23 06:09:14;;;;;;;10.27;5.23;;;;;;;18.66;53.04;99711.34;5071511;28;20235;-74
2023/04/23 06:11:41;;;;;;;5.10;4.40;;;;;;;18.55;53.90;99706.84;5071492;28;20664;-75
2023/04/23 06:14:07;;;;;;;7.27;4.80;;;;;;;18.35;54.86;99703.78;5071856;28;20229;-76
2023/04/23 06:16:35;;;;;;;5.33;4.80;;;;;;;18.19;55.29;99699.13;5071747;28;20219;-77
2023/04/23 06:19:03;;;;;;;7.53;4.30;;;;;;;17.92;56.64;99703.44;5071032;28;20666;-75
2023/04/23 06:21:31;;;;;;;9.20;4.70;;;;;;;17.74;56.41;99706.28;5073059;28;20202;-78
2023/04/23 06:23:58;;;;;;;9.10;4.83;;;;;;;17.63;57.97;99704.41;5071540;28;20230;-78
2023/04/23 06:26:24;;;;;;;8.43;4.97;;;;;;;17.53;58.87;99693.47;5070799;28;20250;-78
2023/04/23 06:28:51;;;;;;;7.00;4.70;;;;;;;17.34;60.07;99698.13;5071293;28;20706;-77
2023/04/23 06:31:18;;;;;;;5.67;4.83;;;;;;;17.34;59.87;99699.97;5071299;28;20291;-76
2023/04/23 06:33:46;;;;;;;6.30;4.47;;;;;;;17.16;59.52;99698.25;5071523;28;20203;-78
2023/04/23 06:36:13;;;;;;;4.57;3.97;;;;;;;16.95;61.28;99696.13;5069613;28;20192;-72
2023/04/23 06:38:40;;;;;;;8.53;4.67;;;;;;;17.01;60.74;99694.38;5061605;28;20223;-71
2023/04/23 06:41:07;;;;;;;8.67;5.40;;;;;;;17.16;61.10;99697.44;5071145;28;20260;-72
2023/04/23 06:43:34;;;;;;;11.77;6.47;;;;;;;17.14;60.38;99703.03;5070386;28;20261;-73
2023/04/23 06:46:00;;;;;;;9.93;6.40;;;;;;;17.01;60.67;99680.97;5070769;28;20270;-75
2023/04/23 06:48:27;;;;;;;6.77;6.13;;;;;;;17.04;61.88;99699.28;5071237;28;20202;-75
2023/04/23 06:50:55;;;;;;;8.03;5.27;;;;;;;17.11;62.20;99695.44;5069992;28;20566;-74
2023/04/23 06:53:22;;;;;;;9.60;5.23;;;;;;;17.13;61.27;99693.34;5070315;28;20244;-74
2023/04/23 06:55:50;;;;;;;7.60;5.97;;;;;;;17.09;61.65;99694.03;5070170;28;20192;-75
2023/04/23 06:58:17;;;;;;;10.50;6.03;;;;;;;17.01;61.88;99694.38;5070299;28;20846;-74
2023/04/23 07:00:43;;;;;;;15.57;7.07;;;;;;;17.00;61.38;99692.75;5070816;28;20201;-74
2023/04/23 07:03:10;;;;;;;9.30;6.10;;;;;;;17.07;62.49;99693.47;5070359;28;20199;-75
2023/04/23 07:05:37;;;;;;;8.77;5.30;;;;;;;17.46;62.01;99700.81;5070891;28;20621;-74
2023/04/23 07:08:05;;;;;;;14.67;6.77;;;;;;;17.68;61.22;99691.13;5073962;28;20192;-74
2023/04/23 07:10:32;;;;;;;8.43;5.27;;;;;;;17.97;60.55;99688.22;5075067;28;20199;-74
2023/04/23 07:12:58;;;;;;;13.50;6.30;;;;;;;18.28;59.54;99678.88;5073688;28;20243;-73
2023/04/23 07:15:25;;;;;;;8.17;5.77;;;;;;;18.70;57.70;99702.53;5073913;28;20199;-74
2023/04/23 07:17:53;;;;;;;7.23;4.63;;;;;;;19.11;61.42;99693.25;5086532;28;20216;-77
2023/04/23 07:20:20;;;;;;;6.27;4.67;;;;;;;19.92;57.84;99696.84;5054559;28;20194;-75
2023/04/23 07:22:47;;;;;;;9.73;4.80;;;;;;;20.67;53.66;99708.47;5054414;28;20259;-75
2023/04/23 07:25:15;;;;;;;8.70;5.27;;;;;;;21.44;51.51;99713.44;5053973;28;20196;-77
2023/04/23 07:27:42;;;;;;;6.90;5.77;;;;;;;22.18;47.78;99707.63;5072748;28;20232;-76
2023/04/23 07:30:10;;;;;;;6.93;6.27;;;;;;;22.38;47.39;99704.16;5074010;28;20245;-78
2023/04/23 07:32:36;;;;;;;9.17;6.43;;;;;;;22.18;47.49;99696.78;5073110;28;20192;-76
2023/04/23 07:35:04;;;;;;;7.70;5.97;;;;;;;21.70;49.82;99699.84;5074223;28;20218;-76
2023/04/23 07:37:30;;;;;;;9.90;6.00;;;;;;;21.84;48.21;99700.97;5073597;28;20220;-74
2023/04/23 07:39:57;;;;;;;9.37;5.97;;;;;;;21.94;49.35;99692.91;5074406;28;20191;-76
2023/04/23 07:42:25;;;;;;;10.10;6.93;;;;;;;22.07;49.79;99689.72;5072808;28;20242;-74
2023/04/23 07:44:52;;;;;;;9.70;6.50;;;;;;;22.32;46.87;99697.06;5073745;28;20192;-76
2023/04/23 07:47:18;;;;;;;20.20;7.13;;;;;;;22.36;49.06;99688.16;5072818;28;20746;-75
2023/04/23 07:49:45;;;;;;;16.77;6.47;;;;;;;22.64;49.51;99685.00;5073115;28;20253;-78
2023/04/23 07:52:12;;;;;;;10.10;5.73;;;;;;;22.80;47.93;99677.69;5073738;28;20191;-75
2023/04/23 07:54:39;;;;;;;11.60;5.93;;;;;;;23.11;46.24;99684.75;5073953;28;20214;-76
2023/04/23 07:57:05;;;;;;;13.83;6.73;;;;;;;23.27;44.23;99684.47;5073347;28;20216;-73
2023/04/23 07:59:34;;;;;;;7.93;6.43;;;;;;;23.23;44.05;99683.38;5073263;28;20602;-74
2023/04/23 08:02:00;;;;;;;6.50;6.00;;;;;;;22.80;45.96;99678.50;5072802;28;20188;-74
2023/04/23 08:04:27;;;;;;;7.87;6.00;;;;;;;23.06;45.06;99684.72;5072015;28;20808;-74
2023/04/23 08:06:54;;;;;;;10.60;6.47;;;;;;;23.25;44.76;99681.22;5073441;28;20197;-72
2023/04/23 08:09:20;;;;;;;6.63;6.17;;;;;;;23.67;43.90;99678.94;5073284;28;20254;-75
2023/04/23 08:11:48;;;;;;;8.93;6.47;;;;;;;24.06;41.74;99679.88;5072735;28;20685;-75
2023/04/23 08:14:14;;;;;;;7.70;6.80;;;;;;;24.39;40.62;99671.00;5072725;28;20201;-73
2023/04/23 08:16:44;;;;;;;8.70;6.50;;;;;;;24.44;39.89;99678.31;5072644;28;20681;-73
2023/04/23 08:19:11;;;;;;;15.43;6.67;;;;;;;24.47;42.20;99667.69;5073435;28;20193;-79
2023/04/23 08:21:38;;;;;;;7.50;5.90;;;;;;;24.96;43.04;99660.28;5073499;28;20234;-78
2023/04/23 08:24:06;;;;;;;6.83;6.23;;;;;;;25.25;38.73;99673.06;5072575;28;20630;-76
2023/04/23 08:26:33;;;;;;;8.17;6.73;;;;;;;24.70;39.02;99629.00;5073629;28;20244;-76
2023/04/23 08:29:00;;;;;;;11.53;6.33;;;;;;;25.11;40.96;99655.81;5071958;28;20263;-76
2023/04/23 08:31:27;;;;;;;7.13;6.63;;;;;;;24.69;39.43;99665.41;5072933;28;20657;-76
2023/04/23 08:33:55;;;;;;;8.83;5.73;;;;;;;25.08;40.11;99663.44;5073084;28;20324;-75
2023/04/23 08:36:22;;;;;;;9.20;5.43;;;;;;;25.21;38.98;99656.53;5073028;28;20256;-75
2023/04/23 08:38:48;;;;;;;7.63;5.47;;;;;;;25.55;38.28;99656.47;5072634;28;20223;-75
2023/04/23 08:41:18;;;;;;;9.57;6.17;;;;;;;25.35;35.93;99662.13;5072459;28;20252;-75
2023/04/23 08:43:50;;;;;;;6.10;5.47;;;;;;;25.29;38.48;99652.38;5072655;28;20253;-75
2023/04/23 08:46:19;;;;;;;7.73;6.27;;;;;;;25.03;37.05;99639.00;5073157;28;20274;-74
2023/04/23 08:48:46;;;;;;;11.00;5.90;;;;;;;24.54;38.68;99651.09;5071687;28;20199;-75
2023/04/23 08:51:21;;;;;;;4.97;4.40;;;;;;;24.56;40.86;99649.72;5071538;28;20278;-73
2023/04/23 08:53:51;;;;;;;5.70;5.20;;;;;;;24.75;39.33;99647.97;5071321;28;20183;-74
2023/04/23 08:56:19;;;;;;;8.30;5.27;;;;;;;24.70;39.41;99645.28;5071657;28;20206;-74
2023/04/23 08:58:47;;;;;;;6.03;5.30;;;;;;;25.14;38.95;99644.38;5072582;28;20594;-76
2023/04/23 09:01:14;;;;;;;7.83;5.77;;;;;;;25.47;38.49;99647.03;5072551;28;20275;-75
2023/04/23 09:03:42;;;;;;;7.00;5.57;;;;;;;25.33;36.97;99642.56;5073227;28;20276;-76
2023/04/23 09:06:09;;;;;;;7.07;5.57;;;;;;;24.89;37.14;99643.50;5073223;28;20198;-75
2023/04/23 09:08:38;;;;;;;5.60;5.20;;;;;;;25.08;37.41;99642.78;5073425;28;20204;-74
2023/04/23 09:11:06;;;;;;;11.80;5.10;;;;;;;25.30;37.31;99632.25;5072755;28;20222;-74
2023/04/23 09:13:35;;;;;;;5.77;4.83;;;;;;;25.37;37.33;99622.66;5072826;28;20658;-75
2023/04/23 09:16:02;;;;;;;7.23;4.63;;;;;;;25.56;37.69;99628.16;5072232;28;20191;-76
2023/04/23 09:18:29;;;;;;;6.30;4.30;;;;;;;25.46;34.78;99625.53;5073091;28;20296;-75
2023/04/23 09:20:56;;;;;;;9.50;3.90;;;;;;;25.18;36.79;99626.38;5072841;28;20626;-75
2023/04/23 09:23:23;;;;;;;19.03;5.03;;;;;;;25.06;37.87;99625.97;5073100;28;20198;-75
2023/04/23 09:25:51;;;;;;;6.47;4.17;;;;;;;24.72;36.28;99626.81;5072835;28;20191;-76
2023/04/23 09:28:18;;;;;;;9.37;3.90;;;;;;;24.68;38.00;99614.88;5072482;28;20292;-76
2023/04/23 09:30:45;;;;;;;5.93;3.30;;;;;;;24.75;34.20;99603.69;5072096;28;20260;-76
2023/04/23 09:33:12;;;;;;;4.13;3.60;;;;;;;24.73;35.53;99620.28;5072688;28;20194;-76
2023/04/23 09:35:41;;;;;;;5.43;3.30;;;;;;;24.66;33.32;99619.78;5072780;28;20254;-74
2023/04/23 09:38:09;;;;;;;4.73;2.67;;;;;;;24.09;36.90;99611.47;5072822;28;20225;-75
2023/04/23 09:40:37;;;;;;;3.90;3.53;;;;;;;24.37;35.93;99612.63;5071217;28;20678;-76
2023/04/23 09:43:06;;;;;;;4.43;3.30;;;;;;;24.33;36.25;99612.41;5052688;28;20204;-76
2023/04/23 09:45:34;;;;;;;5.53;3.77;;;;;;;24.60;35.41;99610.06;5051447;28;20199;-76
2023/04/23 09:48:00;;;;;;;4.67;3.63;;;;;;;24.64;34.50;99613.84;5052296;28;20330;-75
2023/04/23 09:50:32;;;;;;;4.10;3.80;;;;;;;24.87;35.12;99607.63;5052503;28;20262;-75
2023/04/23 09:52:59;;;;;;;5.63;3.47;;;;;;;25.08;32.54;99614.50;5052665;28;20192;-75
2023/04/23 09:55:33;;;;;;;4.47;3.77;;;;;;;25.12;32.74;99592.19;5052440;28;20192;-76
2023/04/23 09:58:01;;;;;;;4.10;3.80;;;;;;;25.32;33.03;99603.69;5052290;28;20639;-76
2023/04/23 10:00:33;;;;;;;4.53;3.37;;;;;;;25.45;31.89;99603.00;5052459;28;20238;-76
2023/04/23 10:03:00;;;;;;;3.80;2.87;;;;;;;25.74;31.73;99584.66;5053665;28;20326;-75
2023/04/23 10:05:27;;;;;;;3.93;2.93;;;;;;;25.82;32.00;99585.91;5071904;28;20642;-75
2023/04/23 10:07:55;;;;;;;6.77;3.20;;;;;;;25.64;31.22;99584.78;5070449;28;20622;-75
2023/04/23 10:10:22;;;;;;;7.03;3.20;;;;;;;25.64;31.50;99584.00;5072128;28;20195;-75
2023/04/23 10:12:51;;;;;;;3.33;2.80;;;;;;;25.56;31.62;99592.78;5071925;28;20305;-75
2023/04/23 10:15:18;;;;;;;3.40;3.10;;;;;;;25.71;31.95;99584.41;5070615;28;20207;-75
2023/04/23 10:17:47;;;;;;;5.90;3.20;;;;;;;25.45;32.22;99591.28;5071777;28;20220;-74
2023/04/23 10:20:16;;;;;;;4.37;3.20;;;;;;;25.54;33.10;99578.66;5071781;28;20278;-74
2023/04/23 10:22:45;;;;;;;9.37;3.60;;;;;;;25.82;31.51;99566.84;5072202;28;20195;-75
2023/04/23 10:25:13;;;;;;;3.00;2.70;;;;;;;26.09;30.72;99565.13;5072037;28;20192;-75
2023/04/23 10:27:41;;;;;;;4.07;3.20;;;;;;;25.80;30.05;99567.16;5071962;28;20232;-74
2023/04/23 10:30:10;;;;;;;4.73;3.07;;;;;;;25.63;31.68;99557.88;5070564;28;20185;-73
2023/04/23 10:32:38;;;;;;;3.43;3.00;;;;;;;25.59;31.69;99554.13;5071627;28;20253;-73
2023/04/23 10:35:07;;;;;;;4.80;3.10;;;;;;;25.69;31.06;99553.97;5071932;28;20293;-74
2023/04/23 10:37:35;;;;;;;3.63;2.77;;;;;;;25.89;32.04;99549.03;5071919;28;20272;-74
2023/04/23 10:40:10;;;;;;;11.20;3.87;;;;;;;25.22;30.89;99553.97;5071855;28;20273;-71
2023/04/23 10:42:37;;;;;;;19.67;4.03;;;;;;;25.17;30.85;99540.47;5071766;28;20180;-71
2023/04/23 10:45:12;;;;;;;4.23;3.00;;;;;;;25.22;30.73;99527.63;5071932;28;20250;-71
2023/04/23 10:47:38;;;;;;;5.90;3.30;;;;;;;25.32;31.57;99537.59;5071716;28;20241;-69
2023/04/23 10:50:21;;;;;;;7.97;3.10;;;;;;;24.94;31.48;99536.63;5070076;28;20248;-73
2023/04/23 10:52:52;;;;;;;6.13;3.30;;;;;;;24.55;32.12;99536.72;5071560;28;20183;-71
2023/04/23 10:55:20;;;;;;;4.23;3.37;;;;;;;24.36;32.46;99518.69;5070167;28;20658;-73
2023/04/23 10:58:01;;;;;;;3.47;3.17;;;;;;;24.12;32.90;99515.91;5070507;28;20251;-74
2023/04/23 11:00:29;;;;;;;3.60;3.30;;;;;;;23.92;32.83;99529.63;5070056;28;20709;-75
2023/04/23 11:02:56;;;;;;;4.17;3.57;;;;;;;23.85;32.62;99491.09;5068389;28;20217;-73
2023/04/23 11:05:26;;;;;;;3.70;3.50;;;;;;;24.04;34.67;99494.81;5069333;28;20698;-76
2023/04/23 11:08:03;;;;;;;5.13;3.30;;;;;;;24.28;34.61;99500.31;5070528;28;20194;-76
2023/04/23 11:10:31;;;;;;;4.60;3.17;;;;;;;24.32;33.32;99502.19;5070573;28;20234;-76
2023/04/23 11:12:58;;;;;;;9.20;3.17;;;;;;;24.50;34.39;99508.81;5070530;28;20264;-81
2023/04/23 11:15:25;;;;;;;4.70;3.20;;;;;;;24.44;34.16;99497.19;5070355;28;20191;-77
2023/04/23 11:18:02;;;;;;;3.77;3.10;;;;;;;24.73;33.92;99503.44;5069641;28;20199;-77
2023/04/23 11:20:30;;;;;;;4.27;3.27;;;;;;;24.98;33.27;99486.84;5067975;28;20286;-75
2023/04/23 11:22:57;;;;;;;4.10;3.37;;;;;;;25.08;31.13;99494.09;5070342;28;20253;-75
2023/04/23 11:25:25;;;;;;;9.63;4.03;;;;;;;25.00;31.22;99498.22;5069755;28;20620;-76
2023/04/23 11:27:54;;;;;;;4.57;3.30;;;;;;;24.38;33.14;99484.72;5070522;28;20261;-77
2023/04/23 11:30:24;;;;;;;5.40;3.07;;;;;;;24.34;32.71;99494.53;5070601;28;20213;-78
2023/04/23 11:32:54;;;;;;;3.67;3.33;;;;;;;24.49;33.24;99491.69;5071196;28;20207;-78